createdAt,value
2019-04-20T00:00:49.161Z,102503.22
2019-04-20T00:03:14.285Z,102503.38
2019-04-20T00:05:43.810Z,102504.34
2019-04-20T00:08:19.609Z,102506.31
2019-04-20T00:10:54.297Z,102502.13
2019-04-20T00:13:24.611Z,102499.28
2019-04-20T00:15:47.261Z,102503.66
2019-04-20T00:18:17.037Z,102508.57
2019-04-20T00:20:51.349Z,102512.73
2019-04-20T00:23:36.685Z,102508.27
2019-04-20T00:26:56.452Z,102507.57
2019-04-20T00:29:18.725Z,102502.66
2019-04-20T00:31:44.583Z,102495.27
2019-04-20T00:34:09.221Z,102503.75
2019-04-20T00:36:32.870Z,102502.81
2019-04-20T00:39:06.399Z,102506.10
2019-04-20T00:41:40.730Z,102496.33
2019-04-20T00:44:12.328Z,102495.64
2019-04-20T00:46:53.164Z,102497.95
2019-04-20T00:49:24.261Z,102505.59
2019-04-20T00:52:09.108Z,102496.86
2019-04-20T00:54:11.408Z,102494.42
2019-04-20T00:56:41.382Z,102497.59
2019-04-20T00:59:24.099Z,102489.89
2019-04-20T01:02:02.067Z,102495.39
2019-04-20T01:04:32.782Z,102492.86
2019-04-20T01:07:20.278Z,102487.50
2019-04-20T01:09:58.473Z,102492.92
2019-04-20T01:12:30.351Z,102491.83
2019-04-20T01:15:04.265Z,102491.11
2019-04-20T01:17:33.314Z,102489.61
2019-04-20T01:20:02.854Z,102486.98
2019-04-20T01:22:42.750Z,102487.85
2019-04-20T01:25:12.379Z,102481.28
2019-04-20T01:27:49.782Z,102492.08
2019-04-20T01:30:18.708Z,102485.91
2019-04-20T01:32:55.394Z,102486.44
2019-04-20T01:35:27.255Z,102481.84
2019-04-20T01:38:02.621Z,102480.02
2019-04-20T01:40:13.092Z,102484.52
2019-04-20T01:42:42.703Z,102483.62
2019-04-20T01:45:19.041Z,102482.34
2019-04-20T01:47:48.039Z,102479.56
2019-04-20T01:50:21.019Z,102479.95
2019-04-20T01:52:58.053Z,102477.31
2019-04-20T01:55:38.726Z,102478.09
2019-04-20T01:58:22.478Z,102484.13
2019-04-20T02:00:40.097Z,102480.59
2019-04-20T02:03:31.127Z,102473.95
2019-04-20T02:06:03.518Z,102479.38
2019-04-20T02:08:29.864Z,102477.11
2019-04-20T02:11:03.642Z,102479.03
2019-04-20T02:13:36.134Z,102482.52
2019-04-20T02:16:13.962Z,102476.00
2019-04-20T02:18:45.467Z,102475.50
2019-04-20T02:21:24.758Z,102410.91
2019-04-20T02:23:47.405Z,102480.03
2019-04-20T02:26:09.240Z,102477.91
2019-04-20T02:29:09.523Z,102484.83
2019-04-20T02:34:23.884Z,102477.03
2019-04-20T02:36:58.721Z,102482.77
2019-04-20T02:41:58.299Z,102480.38
2019-04-20T02:44:42.614Z,102482.08
2019-04-20T02:47:09.939Z,102480.50
2019-04-20T02:52:04.565Z,102479.34
2019-04-20T02:54:52.680Z,102485.56
2019-04-20T02:57:12.219Z,102482.66
2019-04-20T03:01:59.404Z,102475.46
2019-04-20T03:04:20.247Z,102478.75
2019-04-20T03:07:02.611Z,102478.45
2019-04-20T03:09:36.776Z,102473.36
2019-04-20T03:12:08.188Z,102480.41
2019-04-20T03:14:30.461Z,102476.16
2019-04-20T03:17:12.828Z,102475.94
2019-04-20T03:19:31.272Z,102476.58
2019-04-20T03:22:16.140Z,102475.02
2019-04-20T03:24:43.713Z,102474.19
2019-04-20T03:27:27.578Z,102473.14
2019-04-20T03:30:00.597Z,102473.47
2019-04-20T03:37:48.647Z,102469.63
2019-04-20T03:40:08.345Z,102476.47
2019-04-20T03:42:26.935Z,102464.56
2019-04-20T03:45:03.130Z,102465.64
2019-04-20T03:47:38.468Z,102465.40
2019-04-20T03:50:25.017Z,102468.08
2019-04-20T03:53:04.173Z,102467.52
2019-04-20T03:55:32.347Z,102465.52
2019-04-20T03:58:29.161Z,102468.08
2019-04-20T04:01:22.818Z,102468.19
2019-04-20T04:04:06.366Z,102472.30
2019-04-20T04:06:26.274Z,102471.06
2019-04-20T04:09:06.400Z,102470.53
2019-04-20T04:11:35.485Z,102475.00
2019-04-20T04:13:50.369Z,102465.48
2019-04-20T04:16:22.174Z,102467.31
2019-04-20T04:19:01.482Z,102467.02
2019-04-20T04:21:41.145Z,102469.84
2019-04-20T04:24:05.571Z,102470.86
2019-04-20T04:26:39.054Z,102472.13
2019-04-20T04:29:19.304Z,102479.98
2019-04-20T04:31:56.593Z,102477.52
2019-04-20T04:34:17.516Z,102484.11
2019-04-20T04:36:52.414Z,102484.34
2019-04-20T04:39:27.487Z,102485.09
2019-04-20T04:42:01.317Z,102492.39
2019-04-20T04:44:19.291Z,102492.39
2019-04-20T04:46:42.399Z,102496.48
2019-04-20T04:49:18.021Z,102496.58
2019-04-20T04:51:46.419Z,102500.62
2019-04-20T04:54:16.778Z,102499.71
2019-04-20T04:56:39.873Z,102506.42
2019-04-20T04:59:10.602Z,102500.91
2019-04-20T05:01:40.500Z,102496.44
2019-04-20T05:04:31.685Z,102500.92
2019-04-20T05:06:59.514Z,102503.02
2019-04-20T05:09:15.343Z,102508.32
2019-04-20T05:11:44.765Z,102499.74
2019-04-20T05:14:21.615Z,102511.63
2019-04-20T05:17:04.620Z,102507.15
2019-04-20T05:19:36.841Z,102507.83
2019-04-20T05:22:21.893Z,102511.42
2019-04-20T05:24:53.543Z,102508.06
2019-04-20T05:27:51.267Z,102515.46
2019-04-20T05:30:03.619Z,102523.94
2019-04-20T05:32:44.621Z,102452.66
2019-04-20T05:35:27.000Z,102521.06
2019-04-20T05:38:05.127Z,102522.18
2019-04-20T05:40:26.243Z,102515.20
2019-04-20T05:43:07.850Z,102518.44
2019-04-20T05:45:28.860Z,102517.25
2019-04-20T05:48:05.167Z,102519.30
2019-04-20T05:50:40.195Z,102513.37
2019-04-20T05:53:14.804Z,102516.60
2019-04-20T05:55:39.078Z,102516.10
2019-04-20T05:58:16.492Z,102517.42
2019-04-20T06:00:47.777Z,102509.38
2019-04-20T06:03:18.445Z,102517.16
2019-04-20T06:05:52.494Z,102511.64
2019-04-20T06:08:33.072Z,102506.94
2019-04-20T06:10:52.235Z,102514.50
2019-04-20T06:13:27.843Z,102512.03
2019-04-20T06:16:12.965Z,102515.64
2019-04-20T06:19:02.368Z,102519.09
2019-04-20T06:21:52.940Z,102519.09
2019-04-20T06:24:08.515Z,102515.38
2019-04-20T06:26:51.984Z,102520.64
2019-04-20T06:29:11.227Z,102522.52
2019-04-20T06:31:50.586Z,102521.11
2019-04-20T06:34:30.245Z,102526.55
2019-04-20T06:44:37.020Z,102524.35
2019-04-20T06:49:40.105Z,102529.69
2019-04-20T06:52:24.332Z,102530.42
2019-04-20T06:55:36.790Z,102525.02
2019-04-20T06:57:50.763Z,102531.57
2019-04-20T07:00:17.231Z,102531.13
2019-04-20T07:02:52.966Z,102537.88
2019-04-20T07:05:18.874Z,102536.44
2019-04-20T07:08:14.735Z,102543.62
2019-04-20T07:10:28.574Z,102543.16
2019-04-20T07:12:53.649Z,102540.64
2019-04-20T07:15:18.916Z,102539.77
2019-04-20T07:18:17.167Z,102546.44
2019-04-20T07:20:48.515Z,102539.77
2019-04-20T07:23:18.164Z,102537.23
2019-04-20T07:25:44.717Z,102538.98
2019-04-20T07:28:14.096Z,102543.14
2019-04-20T07:30:43.686Z,102539.11
2019-04-20T07:33:17.259Z,102538.77
2019-04-20T07:35:40.446Z,102542.74
2019-04-20T07:40:44.004Z,102540.86
2019-04-20T07:43:17.165Z,102549.77
2019-04-20T07:45:51.702Z,102543.69
2019-04-20T07:48:21.214Z,102545.17
2019-04-20T07:50:40.873Z,102543.48
2019-04-20T07:53:22.636Z,102538.74
2019-04-20T07:55:56.385Z,102529.91
2019-04-20T07:58:18.407Z,102538.44
2019-04-20T08:01:07.883Z,102539.56
2019-04-20T08:03:38.058Z,102547.16
2019-04-20T08:06:14.242Z,102548.52
2019-04-20T08:08:55.647Z,102550.80
2019-04-20T08:11:28.828Z,102542.19
2019-04-20T08:14:05.942Z,102546.66
2019-04-20T08:16:38.247Z,102544.36
2019-04-20T08:19:00.956Z,102539.67
2019-04-20T08:21:39.162Z,102544.16
2019-04-20T08:24:10.123Z,102542.59
2019-04-20T08:26:23.080Z,102545.64
2019-04-20T08:28:58.616Z,102538.42
2019-04-20T08:31:46.030Z,102537.03
2019-04-20T08:34:33.652Z,102532.44
2019-04-20T08:36:57.157Z,102532.80
2019-04-20T08:39:51.071Z,102526.22
2019-04-20T08:42:04.313Z,102524.25
2019-04-20T08:47:15.883Z,102534.03
2019-04-20T08:49:41.012Z,102527.34
2019-04-20T08:52:47.022Z,102532.92
2019-04-20T08:54:34.620Z,102522.03
2019-04-20T08:56:55.301Z,102525.50
2019-04-20T08:59:21.057Z,102524.34
2019-04-20T09:01:51.072Z,102526.05
2019-04-20T09:04:32.801Z,102526.25
2019-04-20T09:07:04.041Z,102528.21
2019-04-20T09:09:49.403Z,102529.76
2019-04-20T09:12:13.757Z,102525.45
2019-04-20T09:14:28.054Z,102531.83
2019-04-20T09:17:07.239Z,102520.47
2019-04-20T09:19:42.124Z,102518.49
2019-04-20T09:22:34.033Z,102519.66
2019-04-20T09:25:25.087Z,102520.56
2019-04-20T09:27:36.225Z,102510.16
2019-04-20T09:30:09.138Z,102512.98
2019-04-20T09:32:59.548Z,102514.86
2019-04-20T09:35:31.265Z,102510.63
2019-04-20T09:38:11.798Z,102511.20
2019-04-20T09:40:44.899Z,102516.70
2019-04-20T09:43:04.575Z,102521.29
2019-04-20T09:45:50.447Z,102521.03
2019-04-20T09:48:29.625Z,102513.28
2019-04-20T09:51:15.057Z,102517.80
2019-04-20T09:53:35.809Z,102515.90
2019-04-20T09:56:11.686Z,102521.45
2019-04-20T09:58:46.400Z,102517.14
2019-04-20T10:01:11.103Z,102514.98
2019-04-20T10:03:27.391Z,102514.17
2019-04-20T10:05:56.982Z,102513.95
2019-04-20T10:08:26.502Z,102510.52
2019-04-20T10:10:56.253Z,102513.58
2019-04-20T10:13:27.063Z,102507.16
2019-04-20T10:15:57.729Z,102505.73
2019-04-20T10:18:27.946Z,102507.95
2019-04-20T10:20:57.963Z,102500.42
2019-04-20T10:23:27.617Z,102499.34
2019-04-20T10:25:58.439Z,102502.03
2019-04-20T10:28:28.079Z,102498.81
2019-04-20T10:30:58.951Z,102490.98
2019-04-20T10:33:28.727Z,102492.47
2019-04-20T10:35:59.462Z,102492.55
2019-04-20T10:38:32.820Z,102490.45
2019-04-20T10:41:12.664Z,102490.07
2019-04-20T10:43:35.077Z,102496.65
2019-04-20T10:46:06.931Z,102488.86
2019-04-20T10:48:40.220Z,102482.90
2019-04-20T10:51:08.424Z,102482.45
2019-04-20T10:53:38.368Z,102481.19
2019-04-20T10:56:09.482Z,102482.94
2019-04-20T10:58:40.061Z,102476.95
2019-04-20T11:01:11.533Z,102482.56
2019-04-20T11:03:41.162Z,102480.44
2019-04-20T11:06:11.073Z,102477.87
2019-04-20T11:08:40.728Z,102473.14
2019-04-20T11:11:16.653Z,102474.52
2019-04-20T11:13:41.548Z,102468.89
2019-04-20T11:16:12.581Z,102472.36
2019-04-20T11:18:43.228Z,102468.88
2019-04-20T11:21:13.320Z,102466.28
2019-04-20T11:23:44.512Z,102464.13
2019-04-20T11:26:16.136Z,102445.93
2019-04-20T11:28:46.235Z,102460.22
2019-04-20T11:31:16.580Z,102451.99
2019-04-20T11:33:46.400Z,102442.45
2019-04-20T11:36:17.095Z,102441.14
2019-04-20T11:38:47.061Z,102435.05
2019-04-20T11:41:23.749Z,102437.67
2019-04-20T11:43:47.854Z,102431.58
2019-04-20T11:46:18.604Z,102430.30
2019-04-20T11:48:48.133Z,102425.09
2019-04-20T11:51:17.641Z,102425.95
2019-04-20T11:53:48.186Z,102418.16
2019-04-20T11:56:23.912Z,102420.34
2019-04-20T11:58:49.213Z,102415.12
2019-04-20T12:01:44.102Z,102406.45
2019-04-20T12:04:20.399Z,102406.47
2019-04-20T12:06:39.568Z,102402.56
2019-04-20T12:09:11.018Z,102399.07
2019-04-20T12:11:56.262Z,102395.62
2019-04-20T12:14:12.634Z,102400.37
2019-04-20T12:16:43.647Z,102396.97
2019-04-20T12:19:14.602Z,102394.77
2019-04-20T12:21:45.492Z,102390.41
2019-04-20T12:24:16.430Z,102386.45
2019-04-20T12:26:47.009Z,102388.16
2019-04-20T12:29:16.517Z,102389.87
2019-04-20T12:31:51.071Z,102383.41
2019-04-20T12:34:18.138Z,102383.80
2019-04-20T12:36:49.109Z,102380.72
2019-04-20T12:39:19.268Z,102376.78
2019-04-20T12:41:53.309Z,102375.08
2019-04-20T12:44:21.712Z,102371.55
2019-04-20T12:46:52.026Z,102365.94
2019-04-20T12:49:21.689Z,102367.67
2019-04-20T12:51:57.335Z,102362.90
2019-04-20T12:54:22.785Z,102362.44
2019-04-20T12:56:52.939Z,102361.59
2019-04-20T12:59:23.475Z,102358.98
2019-04-20T13:01:53.437Z,102356.48
2019-04-20T13:04:23.072Z,102355.57
2019-04-20T13:06:55.225Z,102357.16
2019-04-20T13:09:26.367Z,102348.89
2019-04-20T13:12:05.540Z,102350.16
2019-04-20T13:15:18.174Z,102342.27
2019-04-20T13:17:49.794Z,102340.60
2019-04-20T13:20:19.037Z,102337.09
2019-04-20T13:22:48.761Z,102334.52
2019-04-20T13:25:19.031Z,102329.78
2019-04-20T13:27:49.320Z,102330.65
2019-04-20T13:30:20.184Z,102328.08
2019-04-20T13:32:49.929Z,102323.70
2019-04-20T13:35:20.572Z,102326.70
2019-04-20T13:37:51.844Z,102322.80
2019-04-20T13:40:21.915Z,102324.49
2019-04-20T13:42:53.896Z,102319.13
2019-04-20T13:45:24.693Z,102313.95
2019-04-20T13:47:55.090Z,102314.86
2019-04-20T13:50:24.711Z,102314.51
2019-04-20T13:52:56.508Z,102311.11
2019-04-20T13:55:27.320Z,102302.42
2019-04-20T13:58:11.705Z,102301.95
2019-04-20T14:00:57.356Z,102297.17
2019-04-20T14:03:30.220Z,102296.73
2019-04-20T14:06:00.643Z,102291.92
2019-04-20T14:08:31.485Z,102291.05
2019-04-20T14:11:01.040Z,102292.27
2019-04-20T14:13:39.262Z,102289.19
2019-04-20T14:16:03.076Z,102282.62
2019-04-20T14:18:33.295Z,102276.50
2019-04-20T14:21:02.848Z,102277.80
2019-04-20T14:23:32.823Z,102275.15
2019-04-20T14:26:03.086Z,102270.36
2019-04-20T14:28:33.295Z,102262.48
2019-04-20T14:31:03.871Z,102264.18
2019-04-20T14:33:34.870Z,102258.96
2019-04-20T14:36:05.169Z,102256.41
2019-04-20T14:38:36.118Z,102256.30
2019-04-20T14:41:06.406Z,102251.20
2019-04-20T14:43:37.845Z,102252.11
2019-04-20T14:46:08.602Z,102249.39
2019-04-20T14:48:38.567Z,102253.42
2019-04-20T14:51:08.157Z,102245.20
2019-04-20T14:53:37.860Z,102246.13
2019-04-20T14:56:07.473Z,102243.42
2019-04-20T14:58:47.180Z,102242.11
2019-04-20T15:01:32.882Z,102240.81
2019-04-20T15:04:06.762Z,102236.95
2019-04-20T15:06:36.718Z,102234.40
2019-04-20T15:09:06.966Z,102229.23
2019-04-20T15:11:40.999Z,102224.41
2019-04-20T15:14:09.099Z,102224.41
2019-04-20T15:16:38.622Z,102221.81
2019-04-20T15:19:23.466Z,102216.98
2019-04-20T15:21:55.773Z,102211.66
2019-04-20T15:24:25.445Z,102214.08
2019-04-20T15:26:56.348Z,102206.73
2019-04-20T15:29:26.398Z,102213.55
2019-04-20T15:31:56.512Z,102207.95
2019-04-20T15:34:26.832Z,102209.05
2019-04-20T15:36:58.216Z,102202.89
2019-04-20T15:39:27.843Z,102213.67
2019-04-20T15:41:57.366Z,102204.03
2019-04-20T15:44:27.296Z,102204.23
2019-04-20T15:46:57.318Z,102209.27
2019-04-20T15:49:28.163Z,102203.66
2019-04-20T15:51:59.640Z,102206.05
2019-04-20T15:54:29.618Z,102198.78
2019-04-20T15:57:07.440Z,102201.39
2019-04-20T15:59:32.530Z,102196.56
2019-04-20T16:02:09.619Z,102197.28
2019-04-20T16:04:52.605Z,102196.32
2019-04-20T16:07:23.456Z,102195.51
2019-04-20T16:09:53.162Z,102190.77
2019-04-20T16:12:23.016Z,102194.74
2019-04-20T16:14:53.687Z,102137.75
2019-04-20T16:17:30.795Z,102193.58
2019-04-20T16:20:01.270Z,102187.70
2019-04-20T16:22:27.169Z,102192.90
2019-04-20T16:25:03.575Z,102191.52
2019-04-20T16:27:38.077Z,102184.69
2019-04-20T16:30:09.650Z,102181.66
2019-04-20T16:32:40.561Z,102187.42
2019-04-20T16:35:10.965Z,102182.16
2019-04-20T16:37:40.704Z,102179.09
2019-04-20T16:40:11.658Z,102176.88
2019-04-20T16:42:42.700Z,102184.77
2019-04-20T16:45:12.621Z,102173.52
2019-04-20T16:47:42.199Z,102173.11
2019-04-20T16:50:13.070Z,102176.98
2019-04-20T16:52:43.142Z,102172.68
2019-04-20T16:55:13.032Z,102170.91
2019-04-20T16:57:45.920Z,102169.64
2019-04-20T17:00:15.529Z,102171.87
2019-04-20T17:02:45.212Z,102167.25
2019-04-20T17:05:15.009Z,102167.66
2019-04-20T17:07:45.240Z,102160.72
2019-04-20T17:10:16.172Z,102160.70
2019-04-20T17:12:46.094Z,102167.66
2019-04-20T17:15:19.390Z,102165.52
2019-04-20T17:17:51.599Z,102162.11
2019-04-20T17:20:21.986Z,102157.80
2019-04-20T17:22:54.198Z,102166.89
2019-04-20T17:25:25.877Z,102166.06
2019-04-20T17:28:13.352Z,102163.00
2019-04-20T17:31:15.579Z,102157.81
2019-04-20T17:33:59.121Z,102156.52
2019-04-20T17:36:24.709Z,102156.55
2019-04-20T17:38:54.973Z,102154.84
2019-04-20T17:41:47.447Z,102150.52
2019-04-20T17:44:09.973Z,102151.83
2019-04-20T17:46:39.109Z,102148.77
2019-04-20T17:49:13.297Z,102149.21
2019-04-20T17:51:55.440Z,102147.93
2019-04-20T17:54:11.168Z,102150.09
2019-04-20T17:56:42.514Z,102153.58
2019-04-20T17:59:12.556Z,102155.68
2019-04-20T18:02:20.314Z,102161.25
2019-04-20T18:05:22.296Z,102158.22
2019-04-20T18:07:48.146Z,102162.48
2019-04-20T18:10:18.789Z,102159.80
2019-04-20T18:12:37.444Z,102169.30
2019-04-20T18:15:22.914Z,102164.47
2019-04-20T18:18:10.293Z,102167.88
2019-04-20T18:20:32.736Z,102167.48
2019-04-20T18:23:02.646Z,102170.46
2019-04-20T18:26:02.749Z,102168.72
2019-04-20T18:28:19.627Z,102170.83
2019-04-20T18:30:51.373Z,102164.76
2019-04-20T18:33:18.891Z,102167.79
2019-04-20T18:35:47.860Z,102169.13
2019-04-20T18:38:18.488Z,102169.09
2019-04-20T18:40:56.045Z,102171.25
2019-04-20T18:43:22.770Z,102169.49
2019-04-20T18:46:08.135Z,102170.78
2019-04-20T18:48:45.208Z,102175.97
2019-04-20T18:50:54.754Z,102170.32
2019-04-20T18:53:33.635Z,102179.85
2019-04-20T18:55:59.115Z,102172.55
2019-04-20T18:58:27.059Z,102169.05
2019-04-20T19:00:58.984Z,102169.05
2019-04-20T19:03:35.668Z,102131.28
2019-04-20T19:06:02.047Z,102155.97
2019-04-20T19:08:38.165Z,102174.91
2019-04-20T19:11:07.663Z,102172.68
2019-04-20T19:13:43.477Z,102170.08
2019-04-20T19:16:30.649Z,102178.64
2019-04-20T19:19:08.859Z,102174.70
2019-04-20T19:21:27.123Z,102176.28
2019-04-20T19:24:03.789Z,102171.44
2019-04-20T19:26:28.557Z,102176.53
2019-04-20T19:29:11.101Z,102177.76
2019-04-20T19:31:45.821Z,102174.62
2019-04-20T19:34:18.817Z,102177.48
2019-04-20T19:36:38.923Z,102184.52
2019-04-20T19:39:23.418Z,102177.24
2019-04-20T19:41:47.773Z,102179.43
2019-04-20T19:44:18.904Z,102178.59
2019-04-20T19:47:03.286Z,102176.02
2019-04-20T19:49:24.413Z,102178.61
2019-04-20T19:52:13.608Z,102175.55
2019-04-20T19:54:35.488Z,102175.51
2019-04-20T19:57:00.480Z,102174.22
2019-04-20T19:59:23.348Z,102169.84
2019-04-20T20:01:47.686Z,102173.20
2019-04-20T20:04:19.705Z,102174.89
2019-04-20T20:06:56.221Z,102180.02
2019-04-20T20:09:21.878Z,102170.07
2019-04-20T20:11:51.565Z,102172.19
2019-04-20T20:14:32.031Z,102167.81
2019-04-20T20:17:08.671Z,102170.47
2019-04-20T20:19:37.206Z,102171.31
2019-04-20T20:22:06.725Z,102179.52
2019-04-20T20:24:27.198Z,102178.60
2019-04-20T20:27:02.516Z,102178.84
2019-04-20T20:29:36.525Z,102178.26
2019-04-20T20:32:11.513Z,102176.88
2019-04-20T20:34:40.277Z,102184.78
2019-04-20T20:37:10.746Z,102184.38
2019-04-20T20:39:38.415Z,102185.59
2019-04-20T20:42:18.889Z,102185.09
2019-04-20T20:44:49.761Z,102184.92
2019-04-20T20:47:39.169Z,102183.09
2019-04-20T20:50:11.307Z,102184.67
2019-04-20T20:52:28.781Z,102185.92
2019-04-20T20:54:54.113Z,102182.05
2019-04-20T20:57:20.687Z,102183.80
2019-04-20T20:59:55.702Z,102175.66
2019-04-20T21:02:24.065Z,102181.98
2019-04-20T21:04:49.027Z,102179.30
2019-04-20T21:07:18.580Z,102182.37
2019-04-20T21:09:48.362Z,102179.44
2019-04-20T21:12:19.855Z,102177.24
2019-04-20T21:14:49.246Z,102175.42
2019-04-20T21:17:23.604Z,102178.02
2019-04-20T21:20:07.326Z,102182.62
2019-04-20T21:22:41.335Z,102178.80
2019-04-20T21:24:55.049Z,102182.67
2019-04-20T21:27:25.839Z,102176.11
2019-04-20T21:29:58.723Z,102178.27
2019-04-20T21:32:28.143Z,102176.91
2019-04-20T21:35:01.339Z,102174.53
2019-04-20T21:37:29.046Z,102175.69
2019-04-20T21:40:03.094Z,102174.31
2019-04-20T21:42:34.639Z,102170.10
2019-04-20T21:45:08.140Z,102166.52
2019-04-20T21:47:36.523Z,102171.08
2019-04-20T21:50:21.708Z,102160.56
2019-04-20T21:52:41.321Z,102159.39
2019-04-20T21:55:08.010Z,102157.33
2019-04-20T21:57:43.282Z,102161.75
2019-04-20T22:00:23.752Z,102158.00
2019-04-20T22:02:52.094Z,102152.61
2019-04-20T22:05:15.717Z,102150.96
2019-04-20T22:07:46.407Z,102148.73
2019-04-20T22:10:18.938Z,102140.96
2019-04-20T22:12:53.765Z,102142.61
2019-04-20T22:15:25.971Z,102140.26
2019-04-20T22:17:50.588Z,102138.00
2019-04-20T22:20:32.204Z,102134.24
2019-04-20T22:23:02.986Z,102133.88
2019-04-20T22:25:37.934Z,102130.53
2019-04-20T22:27:57.030Z,102135.37
2019-04-20T22:30:26.163Z,102132.28
2019-04-20T22:32:59.503Z,102126.88
2019-04-20T22:35:28.716Z,102133.00
2019-04-20T22:38:10.079Z,102133.10
2019-04-20T22:40:38.554Z,102126.09
2019-04-20T22:43:08.424Z,102122.91
2019-04-20T22:45:42.165Z,102119.13
2019-04-20T22:48:12.828Z,102120.41
2019-04-20T22:51:01.671Z,102114.89
2019-04-20T22:53:27.150Z,102116.63
2019-04-20T22:56:01.448Z,102111.86
2019-04-20T22:58:28.773Z,102120.43
2019-04-20T23:00:51.951Z,102112.97
2019-04-20T23:03:16.865Z,102113.55
2019-04-20T23:05:46.983Z,102108.77
2019-04-20T23:08:17.767Z,102102.94
2019-04-20T23:10:48.621Z,102102.47
2019-04-20T23:13:21.185Z,102104.46
2019-04-20T23:15:56.435Z,102103.80
2019-04-20T23:18:22.323Z,102096.44
2019-04-20T23:20:56.659Z,102106.09
2019-04-20T23:23:26.092Z,102096.11
2019-04-20T23:25:54.531Z,102095.28
2019-04-20T23:28:24.415Z,102097.98
2019-04-20T23:30:59.810Z,102102.64
2019-04-20T23:33:25.652Z,102096.97
2019-04-20T23:35:59.180Z,102096.33
2019-04-20T23:38:26.555Z,102093.41
2019-04-20T23:40:57.597Z,102088.22
2019-04-20T23:43:33.661Z,102082.27
2019-04-20T23:46:26.026Z,102085.50
2019-04-20T23:49:18.123Z,102084.75
2019-04-20T23:52:05.727Z,102082.72
2019-04-20T23:54:18.716Z,102090.36
2019-04-20T23:56:43.934Z,102078.15
2019-04-20T23:59:14.703Z,102076.40
